createdAt,value
2019-04-02T00:02:23.168Z,94436.44
2019-04-02T00:04:51.826Z,94439.59
2019-04-02T00:07:20.505Z,94445.66
2019-04-02T00:09:49.177Z,94448.48
2019-04-02T00:12:17.844Z,94444.22
2019-04-02T00:14:46.810Z,94450.08
2019-04-02T00:17:15.560Z,94446.88
2019-04-02T00:19:44.231Z,94451.00
2019-04-02T00:22:12.914Z,94454.94
2019-04-02T00:24:41.612Z,94447.55
2019-04-02T00:27:10.302Z,94451.42
2019-04-02T00:29:38.987Z,94444.49
2019-04-02T00:32:07.693Z,94454.39
2019-04-02T00:34:36.686Z,94446.80
2019-04-02T00:37:05.934Z,94443.69
2019-04-02T00:39:34.777Z,94443.63
2019-04-02T00:42:03.470Z,94449.59
2019-04-02T00:44:32.115Z,94450.86
2019-04-02T00:47:00.784Z,94448.72
2019-04-02T00:49:29.463Z,94443.63
2019-04-02T00:51:58.141Z,94442.95
2019-04-02T00:54:26.803Z,94441.84
2019-04-02T00:56:56.314Z,94442.95
2019-04-02T00:59:26.041Z,94446.94
2019-04-02T01:01:54.715Z,94455.41
2019-04-02T01:04:23.375Z,94449.98
2019-04-02T01:06:52.053Z,94458.94
2019-04-02T01:09:20.724Z,94459.02
2019-04-02T01:11:50.133Z,94461.39
2019-04-02T01:14:19.329Z,94463.34
2019-04-02T01:16:47.988Z,94461.63
2019-04-02T01:19:16.668Z,94459.55
2019-04-02T01:21:45.345Z,94461.93
2019-04-02T01:24:14.013Z,94462.05
2019-04-02T01:26:42.676Z,94466.94
2019-04-02T01:29:18.719Z,94465.72
2019-04-02T01:31:47.849Z,94470.47
2019-04-02T01:34:16.515Z,94470.76
2019-04-02T01:36:45.192Z,94474.48
2019-04-02T01:39:13.959Z,94470.46
2019-04-02T01:41:49.604Z,94472.23
2019-04-02T01:44:19.424Z,94478.38
2019-04-02T01:46:48.099Z,94467.59
2019-04-02T01:49:16.766Z,94479.75
2019-04-02T01:51:45.432Z,94477.04
2019-04-02T01:54:14.099Z,94479.55
2019-04-02T01:56:42.766Z,94479.12
2019-04-02T01:59:11.454Z,94479.25
2019-04-02T02:01:40.109Z,94485.25
2019-04-02T02:04:08.773Z,94488.55
2019-04-02T02:06:37.437Z,94486.06
2019-04-02T02:09:08.605Z,94488.44
2019-04-02T02:11:37.290Z,94486.98
2019-04-02T02:14:06.374Z,94485.25
2019-04-02T02:16:35.114Z,94493.36
2019-04-02T02:19:03.787Z,94485.58
2019-04-02T02:21:32.506Z,94485.63
2019-04-02T02:24:01.200Z,94488.45
2019-04-02T02:26:29.860Z,94482.30
2019-04-02T02:28:58.533Z,94489.55
2019-04-02T02:31:27.361Z,94488.86
2019-04-02T02:33:56.045Z,94493.25
2019-04-02T02:36:24.725Z,94489.92
2019-04-02T02:38:53.440Z,94490.47
2019-04-02T02:41:56.978Z,94492.66
2019-04-02T02:44:25.730Z,94492.23
2019-04-02T02:46:54.393Z,94497.98
2019-04-02T02:49:23.112Z,94494.17
2019-04-02T02:51:51.799Z,94500.21
2019-04-02T02:54:21.413Z,94507.91
2019-04-02T02:56:50.412Z,94506.33
2019-04-02T02:59:19.488Z,94506.18
2019-04-02T03:01:48.367Z,94505.92
2019-04-02T03:04:17.262Z,94508.74
2019-04-02T03:06:45.954Z,94509.55
2019-04-02T03:09:14.626Z,94510.67
2019-04-02T03:11:43.555Z,94506.47
2019-04-02T03:14:12.237Z,94519.83
2019-04-02T03:16:41.919Z,94522.13
2019-04-02T03:19:13.276Z,94522.63
2019-04-02T03:21:41.180Z,94536.41
2019-04-02T03:24:09.880Z,94534.77
2019-04-02T03:26:38.586Z,94539.39
2019-04-02T03:29:07.254Z,94540.68
2019-04-02T03:31:36.799Z,94535.91
2019-04-02T03:34:10.708Z,94549.05
2019-04-02T03:36:36.200Z,94544.72
2019-04-02T03:39:08.490Z,94545.11
2019-04-02T03:41:39.990Z,94548.19
2019-04-02T03:44:07.756Z,94552.33
2019-04-02T03:46:36.417Z,94553.53
2019-04-02T03:49:05.086Z,94555.45
2019-04-02T03:51:33.769Z,94557.13
2019-04-02T03:54:02.456Z,94563.94
2019-04-02T03:56:31.129Z,94529.75
2019-04-02T03:58:59.816Z,94564.59
2019-04-02T04:01:28.570Z,94559.42
2019-04-02T04:03:57.260Z,94560.51
2019-04-02T04:06:25.933Z,94561.94
2019-04-02T04:08:54.612Z,94567.08
2019-04-02T04:11:23.282Z,94572.38
2019-04-02T04:13:51.987Z,94573.89
2019-04-02T04:16:20.652Z,94577.39
2019-04-02T04:18:49.914Z,94584.32
2019-04-02T04:21:21.286Z,94588.72
2019-04-02T04:23:49.294Z,94584.98
2019-04-02T04:26:21.758Z,94591.10
2019-04-02T04:28:48.349Z,94589.75
2019-04-02T04:31:17.028Z,94593.81
2019-04-02T04:33:45.706Z,94598.47
2019-04-02T04:36:14.419Z,94600.53
2019-04-02T04:38:43.485Z,94609.47
2019-04-02T04:41:12.226Z,94611.22
2019-04-02T04:43:40.904Z,94623.67
2019-04-02T04:46:09.622Z,94620.84
2019-04-02T04:48:38.279Z,94628.00
2019-04-02T04:51:06.965Z,94627.29
2019-04-02T04:53:35.641Z,94633.09
2019-04-02T04:56:04.430Z,94628.71
2019-04-02T04:58:33.108Z,94624.42
2019-04-02T05:01:01.797Z,94623.48
2019-04-02T05:04:06.822Z,94630.39
2019-04-02T05:06:35.519Z,94633.19
2019-04-02T05:09:05.983Z,94630.80
2019-04-02T05:11:34.663Z,94634.64
2019-04-02T05:14:03.329Z,94637.59
2019-04-02T05:16:32.004Z,94634.63
2019-04-02T05:19:00.674Z,94638.28
2019-04-02T05:21:29.355Z,94634.36
2019-04-02T05:23:58.029Z,94637.12
2019-04-02T05:26:26.741Z,94644.01
2019-04-02T05:28:55.530Z,94636.20
2019-04-02T05:31:24.216Z,94642.63
2019-04-02T05:33:52.939Z,94642.34
2019-04-02T05:36:23.166Z,94637.55
2019-04-02T05:38:51.994Z,94633.06
2019-04-02T05:41:20.677Z,94639.65
2019-04-02T05:43:49.654Z,94646.42
2019-04-02T05:46:18.457Z,94645.40
2019-04-02T05:48:47.096Z,94652.25
2019-04-02T05:51:15.777Z,94655.61
2019-04-02T05:53:45.852Z,94615.75
2019-04-02T05:56:14.561Z,94647.86
2019-04-02T05:58:43.253Z,94651.25
2019-04-02T06:01:12.081Z,94655.66
2019-04-02T06:03:41.284Z,94653.56
2019-04-02T06:06:11.096Z,94655.10
2019-04-02T06:08:39.771Z,94661.27
2019-04-02T06:11:08.546Z,94661.69
2019-04-02T06:13:37.226Z,94660.86
2019-04-02T06:16:06.222Z,94661.83
2019-04-02T06:18:34.918Z,94658.97
2019-04-02T06:21:03.673Z,94662.38
2019-04-02T06:23:32.396Z,94667.77
2019-04-02T06:26:01.208Z,94659.09
2019-04-02T06:28:29.907Z,94658.51
2019-04-02T06:30:58.676Z,94655.30
2019-04-02T06:33:27.342Z,94661.08
2019-04-02T06:35:56.041Z,94634.52
2019-04-02T06:38:24.803Z,94659.31
2019-04-02T06:40:53.478Z,94655.97
2019-04-02T06:43:22.156Z,94659.81
2019-04-02T06:45:50.888Z,94662.29
2019-04-02T06:48:25.145Z,94663.68
2019-04-02T06:50:55.394Z,94660.92
2019-04-02T06:53:24.119Z,94664.11
2019-04-02T06:55:52.884Z,94660.79
2019-04-02T06:58:21.580Z,94654.81
2019-04-02T07:00:50.285Z,94660.95
2019-04-02T07:03:18.977Z,94654.20
2019-04-02T07:05:47.723Z,94654.20
2019-04-02T07:08:16.556Z,94661.39
2019-04-02T07:10:48.108Z,94657.42
2019-04-02T07:13:16.852Z,94657.56
2019-04-02T07:15:45.877Z,94658.91
2019-04-02T07:18:14.706Z,94655.66
2019-04-02T07:20:43.458Z,94661.22
2019-04-02T07:23:12.201Z,94664.23
2019-04-02T07:25:42.409Z,94661.38
2019-04-02T07:28:12.315Z,94664.41
2019-04-02T07:30:41.686Z,94668.75
2019-04-02T07:33:10.530Z,94674.92
2019-04-02T07:35:42.151Z,94665.39
2019-04-02T07:38:09.922Z,94671.84
2019-04-02T07:40:39.015Z,94672.55
2019-04-02T07:43:08.967Z,94673.08
2019-04-02T07:45:38.012Z,94677.19
2019-04-02T07:48:09.569Z,94682.90
2019-04-02T07:50:39.608Z,94684.79
2019-04-02T07:53:08.367Z,94676.11
2019-04-02T07:55:37.081Z,94671.29
2019-04-02T07:58:07.252Z,94673.00
2019-04-02T08:00:36.364Z,94676.02
2019-04-02T08:03:05.094Z,94674.48
2019-04-02T08:05:33.908Z,94676.02
2019-04-02T08:08:04.077Z,94672.84
2019-04-02T08:10:33.206Z,94672.77
2019-04-02T08:13:01.972Z,94671.86
2019-04-02T08:15:30.693Z,94660.68
2019-04-02T08:17:59.391Z,94662.26
2019-04-02T08:20:28.210Z,94665.17
2019-04-02T08:22:57.416Z,94666.22
2019-04-02T08:25:27.506Z,94655.05
2019-04-02T08:27:56.668Z,94653.09
2019-04-02T08:30:25.460Z,94655.80
2019-04-02T08:32:54.133Z,94649.19
2019-04-02T08:35:22.938Z,94654.41
2019-04-02T08:37:51.662Z,94654.48
2019-04-02T08:40:20.399Z,94646.70
2019-04-02T08:42:49.069Z,94647.20
2019-04-02T08:45:17.841Z,94639.59
2019-04-02T08:47:46.519Z,94638.73
2019-04-02T08:50:16.044Z,94639.45
2019-04-02T08:52:44.845Z,94636.88
2019-04-02T08:55:13.684Z,94633.39
2019-04-02T08:57:53.312Z,94624.11
2019-04-02T09:00:15.830Z,94624.67
2019-04-02T09:02:44.613Z,94620.87
2019-04-02T09:05:15.117Z,94621.08
2019-04-02T09:07:44.100Z,94621.64
2019-04-02T09:10:12.908Z,94620.41
2019-04-02T09:12:41.663Z,94615.20
2019-04-02T09:15:10.607Z,94620.43
2019-04-02T09:17:39.291Z,94616.05
2019-04-02T09:20:08.561Z,94613.05
2019-04-02T09:22:37.255Z,94615.24
2019-04-02T09:25:07.464Z,94609.36
2019-04-02T09:27:36.495Z,94613.09
2019-04-02T09:30:07.221Z,94606.52
2019-04-02T09:32:36.865Z,94604.26
2019-04-02T09:35:07.472Z,94606.14
2019-04-02T09:37:36.136Z,94594.91
2019-04-02T09:40:07.228Z,94592.52
2019-04-02T09:42:35.894Z,94589.58
2019-04-02T09:45:07.123Z,94590.08
2019-04-02T09:47:36.159Z,94592.02
2019-04-02T09:50:08.155Z,94586.81
2019-04-02T09:52:36.865Z,94582.75
2019-04-02T09:55:07.416Z,94585.55
2019-04-02T09:57:36.298Z,94581.47
2019-04-02T10:00:17.043Z,94578.39
2019-04-02T10:02:45.916Z,94572.95
2019-04-02T10:05:15.392Z,94575.96
2019-04-02T10:07:44.348Z,94571.15
2019-04-02T10:10:14.218Z,94568.86
2019-04-02T10:12:44.079Z,94569.13
2019-04-02T10:15:15.163Z,94562.23
2019-04-02T10:17:43.958Z,94561.40
2019-04-02T10:20:12.927Z,94556.28
2019-04-02T10:22:41.643Z,94562.31
2019-04-02T10:25:10.664Z,94561.44
2019-04-02T10:27:39.469Z,94563.81
2019-04-02T10:30:10.609Z,94550.47
2019-04-02T10:32:39.484Z,94553.75
2019-04-02T10:35:09.052Z,94549.20
2019-04-02T10:37:37.857Z,94544.02
2019-04-02T10:40:08.879Z,94547.03
2019-04-02T10:42:38.180Z,94538.07
2019-04-02T10:45:09.241Z,94537.06
2019-04-02T10:47:38.960Z,94535.95
2019-04-02T10:50:10.318Z,94531.75
2019-04-02T10:52:39.554Z,94534.73
2019-04-02T10:55:09.156Z,94534.81
2019-04-02T10:57:38.215Z,94532.49
2019-04-02T11:00:30.370Z,94524.38
2019-04-02T11:02:59.328Z,94526.59
2019-04-02T11:05:28.168Z,94519.11
2019-04-02T11:07:56.894Z,94526.95
2019-04-02T11:10:25.673Z,94523.30
2019-04-02T11:12:54.386Z,94525.26
2019-04-02T11:15:24.271Z,94523.84
2019-04-02T11:17:53.270Z,94514.59
2019-04-02T11:20:23.293Z,94518.94
2019-04-02T11:22:52.440Z,94506.88
2019-04-02T11:25:21.194Z,94505.80
2019-04-02T11:27:49.985Z,94507.50
2019-04-02T11:30:19.577Z,94507.97
2019-04-02T11:32:48.453Z,94502.88
2019-04-02T11:35:17.783Z,94495.81
2019-04-02T11:37:48.171Z,94499.88
2019-04-02T11:40:18.335Z,94502.20
2019-04-02T11:42:47.196Z,94503.66
2019-04-02T11:45:16.676Z,94493.91
2019-04-02T11:47:45.350Z,94488.13
2019-04-02T11:50:14.557Z,94499.09
2019-04-02T11:52:43.241Z,94488.41
2019-04-02T11:55:12.264Z,94488.52
2019-04-02T11:57:41.429Z,94490.67
2019-04-02T12:00:13.032Z,94487.14
2019-04-02T12:02:42.026Z,94485.33
2019-04-02T12:05:20.763Z,94466.40
2019-04-02T12:07:43.421Z,94484.28
2019-04-02T12:10:12.504Z,94477.38
2019-04-02T12:12:41.257Z,94476.81
2019-04-02T12:15:10.281Z,94474.55
2019-04-02T12:17:39.102Z,94475.92
2019-04-02T12:20:09.042Z,94459.44
2019-04-02T12:22:37.920Z,94465.26
2019-04-02T12:25:07.733Z,94436.53
2019-04-02T12:27:36.986Z,94462.55
2019-04-02T12:30:09.941Z,94453.70
2019-04-02T12:32:40.102Z,94456.35
2019-04-02T12:35:09.887Z,94452.02
2019-04-02T12:37:38.651Z,94446.31
2019-04-02T12:40:10.764Z,94451.01
2019-04-02T12:42:40.698Z,94445.14
2019-04-02T12:45:09.461Z,94442.53
2019-04-02T12:47:38.328Z,94453.63
2019-04-02T12:50:09.212Z,94445.11
2019-04-02T12:52:37.896Z,94450.94
2019-04-02T12:55:08.158Z,94447.27
2019-04-02T12:57:36.926Z,94444.77
2019-04-02T13:00:07.139Z,94445.05
2019-04-02T13:02:37.713Z,94441.20
2019-04-02T13:05:08.556Z,94442.98
2019-04-02T13:07:37.594Z,94438.09
2019-04-02T13:10:10.156Z,94438.02
2019-04-02T13:12:38.861Z,94430.91
2019-04-02T13:15:09.180Z,94435.00
2019-04-02T13:17:37.907Z,94426.28
2019-04-02T13:20:08.573Z,94427.03
2019-04-02T13:22:37.339Z,94428.63
2019-04-02T13:25:11.642Z,94427.05
2019-04-02T13:27:40.617Z,94440.46
2019-04-02T13:30:10.844Z,94426.45
2019-04-02T13:32:39.543Z,94413.19
2019-04-02T13:35:09.727Z,94415.28
2019-04-02T13:37:38.415Z,94408.48
2019-04-02T13:40:10.696Z,94413.16
2019-04-02T13:42:39.340Z,94407.99
2019-04-02T13:45:09.112Z,94402.09
2019-04-02T13:47:37.880Z,94371.11
2019-04-02T13:50:09.227Z,94412.06
2019-04-02T13:52:37.966Z,94407.63
2019-04-02T13:55:07.991Z,94408.48
2019-04-02T13:57:37.583Z,94408.10
2019-04-02T14:00:12.091Z,94403.27
2019-04-02T14:02:40.777Z,94400.35
2019-04-02T14:05:10.256Z,94401.73
2019-04-02T14:07:38.966Z,94403.50
2019-04-02T14:10:08.243Z,94406.02
2019-04-02T14:12:36.941Z,94402.95
2019-04-02T14:15:12.562Z,94396.16
2019-04-02T14:17:40.869Z,94405.48
2019-04-02T14:20:11.282Z,94402.02
2019-04-02T14:22:39.967Z,94402.41
2019-04-02T14:25:09.179Z,94408.53
2019-04-02T14:27:37.956Z,94404.92
2019-04-02T14:30:08.607Z,94405.93
2019-04-02T14:32:37.416Z,94411.82
2019-04-02T14:35:09.499Z,94423.75
2019-04-02T14:37:38.137Z,94417.17
2019-04-02T14:40:09.792Z,94404.61
2019-04-02T14:42:38.531Z,94317.95
2019-04-02T14:45:10.696Z,94408.52
2019-04-02T14:47:39.554Z,94415.34
2019-04-02T14:50:10.432Z,94416.21
2019-04-02T14:52:39.496Z,94409.81
2019-04-02T14:55:08.436Z,94402.50
2019-04-02T14:57:47.338Z,94410.11
2019-04-02T15:00:16.386Z,94415.11
2019-04-02T15:02:45.201Z,94411.31
2019-04-02T15:05:14.057Z,94418.81
2019-04-02T15:07:42.740Z,94407.67
2019-04-02T15:10:12.233Z,94416.87
2019-04-02T15:12:41.164Z,94420.05
2019-04-02T15:15:10.298Z,94414.16
2019-04-02T15:17:40.417Z,94418.72
2019-04-02T15:20:09.378Z,94424.36
2019-04-02T15:22:39.400Z,94416.41
2019-04-02T15:25:08.467Z,94426.16
2019-04-02T15:27:49.548Z,94430.19
2019-04-02T15:30:08.152Z,94430.31
2019-04-02T15:32:36.854Z,94438.55
2019-04-02T15:35:08.753Z,94433.45
2019-04-02T15:37:37.510Z,94437.48
2019-04-02T15:40:07.917Z,94432.41
2019-04-02T15:42:36.619Z,94442.69
2019-04-02T15:45:06.787Z,94441.93
2019-04-02T15:47:36.974Z,94446.05
2019-04-02T15:50:07.214Z,94437.08
2019-04-02T15:52:36.221Z,94452.21
2019-04-02T15:55:06.829Z,94445.00
2019-04-02T15:57:35.517Z,94451.87
2019-04-02T16:00:07.649Z,94454.40
2019-04-02T16:02:39.466Z,94454.52
2019-04-02T16:05:08.302Z,94461.99
2019-04-02T16:07:36.981Z,94466.22
2019-04-02T16:10:08.603Z,94425.21
2019-04-02T16:12:39.219Z,94468.30
2019-04-02T16:15:10.752Z,94463.61
2019-04-02T16:17:39.626Z,94465.03
2019-04-02T16:20:10.337Z,94468.06
2019-04-02T16:22:39.166Z,94474.81
2019-04-02T16:25:08.268Z,94477.77
2019-04-02T16:27:37.045Z,94482.06
2019-04-02T16:30:08.047Z,94482.69
2019-04-02T16:32:36.737Z,94484.99
2019-04-02T16:35:07.598Z,94485.28
2019-04-02T16:37:36.560Z,94489.93
2019-04-02T16:40:05.864Z,94494.31
2019-04-02T16:42:34.589Z,94495.73
2019-04-02T16:45:03.591Z,94503.01
2019-04-02T16:47:32.479Z,94501.19
2019-04-02T16:50:01.128Z,94507.41
2019-04-02T16:52:29.798Z,94506.04
2019-04-02T16:54:58.492Z,94514.47
2019-04-02T16:57:30.073Z,94515.57
2019-04-02T16:59:58.764Z,94523.36
2019-04-02T17:02:27.536Z,94528.32
2019-04-02T17:04:56.826Z,94531.06
2019-04-02T17:07:26.311Z,94529.37
2019-04-02T17:09:55.039Z,94537.82
2019-04-02T17:12:23.725Z,94541.13
2019-04-02T17:14:52.437Z,94538.45
2019-04-02T17:17:21.120Z,94539.18
2019-04-02T17:19:49.787Z,94547.11
2019-04-02T17:22:18.784Z,94546.98
2019-04-02T17:24:48.702Z,94549.33
2019-04-02T17:27:17.367Z,94554.48
2019-04-02T17:29:46.032Z,94568.60
2019-04-02T17:32:14.697Z,94558.13
2019-04-02T17:34:43.374Z,94565.38
2019-04-02T17:37:12.927Z,94569.42
2019-04-02T17:39:42.500Z,94572.55
2019-04-02T17:42:13.252Z,94577.16
2019-04-02T17:44:42.614Z,94573.39
2019-04-02T17:47:12.927Z,94577.48
2019-04-02T17:49:42.076Z,94586.94
2019-04-02T17:52:10.833Z,94583.36
2019-04-02T17:54:39.529Z,94582.87
2019-04-02T17:57:08.259Z,94592.61
2019-04-02T17:59:38.792Z,94584.98
2019-04-02T18:02:07.742Z,94591.83
2019-04-02T18:04:42.749Z,94593.38
2019-04-02T18:07:07.113Z,94595.34
2019-04-02T18:09:35.853Z,94595.63
2019-04-02T18:12:04.551Z,94602.35
2019-04-02T18:14:33.893Z,94601.15
2019-04-02T18:17:02.784Z,94605.51
2019-04-02T18:19:31.552Z,94603.55
2019-04-02T18:22:00.282Z,94607.77
2019-04-02T18:24:29.092Z,94601.31
2019-04-02T18:26:58.027Z,94599.95
2019-04-02T18:29:26.701Z,94606.44
2019-04-02T18:31:55.405Z,94616.42
2019-04-02T18:34:24.551Z,94614.07
2019-04-02T18:36:54.764Z,94616.55
2019-04-02T18:39:23.736Z,94530.73
2019-04-02T18:41:52.505Z,94613.72
2019-04-02T18:44:21.179Z,94621.06
2019-04-02T18:46:50.245Z,94621.20
2019-04-02T18:49:20.838Z,94618.37
2019-04-02T18:51:50.440Z,94614.78
2019-04-02T18:54:19.861Z,94617.03
2019-04-02T18:56:48.901Z,94618.48
2019-04-02T18:59:17.714Z,94618.02
2019-04-02T19:01:55.124Z,94621.01
2019-04-02T19:04:19.460Z,94615.43
2019-04-02T19:06:50.159Z,94619.37
2019-04-02T19:09:19.436Z,94619.64
2019-04-02T19:11:48.418Z,94626.58
2019-04-02T19:14:17.085Z,94627.42
2019-04-02T19:16:45.776Z,94627.66
2019-04-02T19:19:14.487Z,94627.53
2019-04-02T19:21:43.156Z,94628.00
2019-04-02T19:24:11.814Z,94630.20
2019-04-02T19:26:41.907Z,94634.41
2019-04-02T19:29:10.657Z,94644.05
2019-04-02T19:31:40.610Z,94645.64
2019-04-02T19:34:11.348Z,94637.45
2019-04-02T19:36:40.256Z,94648.31
2019-04-02T19:39:10.856Z,94645.64
2019-04-02T19:41:42.014Z,94650.80
2019-04-02T19:44:10.003Z,94651.42
2019-04-02T19:46:38.670Z,94653.45
2019-04-02T19:49:07.426Z,94652.16
2019-04-02T19:51:36.113Z,94649.14
2019-04-02T19:54:04.794Z,94651.05
2019-04-02T19:56:33.590Z,94648.52
2019-04-02T19:59:02.306Z,94667.35
2019-04-02T20:01:31.018Z,94663.27
2019-04-02T20:04:00.222Z,94672.24
2019-04-02T20:06:32.052Z,94667.09
2019-04-02T20:09:00.164Z,94665.77
2019-04-02T20:11:28.834Z,94663.05
2019-04-02T20:13:57.568Z,94667.23
2019-04-02T20:16:26.335Z,94675.31
2019-04-02T20:18:55.093Z,94675.00
2019-04-02T20:21:23.863Z,94677.19
2019-04-02T20:23:52.600Z,94685.38
2019-04-02T20:26:21.268Z,94686.20
2019-04-02T20:28:50.196Z,94525.08
2019-04-02T20:31:18.899Z,94682.95
2019-04-02T20:33:49.894Z,94680.84
2019-04-02T20:36:17.962Z,94673.77
2019-04-02T20:38:46.627Z,94674.94
2019-04-02T20:41:17.220Z,94677.19
2019-04-02T20:43:45.821Z,94675.22
2019-04-02T20:46:14.476Z,94676.47
2019-04-02T20:48:43.156Z,94687.11
2019-04-02T20:51:11.824Z,94689.43
2019-04-02T20:53:40.529Z,94690.79
2019-04-02T20:56:09.187Z,94684.33
2019-04-02T20:58:37.869Z,94681.08
2019-04-02T21:01:06.552Z,94688.27
2019-04-02T21:03:35.214Z,94685.30
2019-04-02T21:06:03.903Z,94640.70
2019-04-02T21:08:32.918Z,94697.38
2019-04-02T21:11:10.398Z,94701.84
2019-04-02T21:13:32.142Z,94699.20
2019-04-02T21:16:00.822Z,94706.81
2019-04-02T21:18:34.488Z,94705.99
2019-04-02T21:21:04.851Z,94709.17
2019-04-02T21:23:33.536Z,94686.05
2019-04-02T21:26:02.196Z,94710.03
2019-04-02T21:28:30.937Z,94706.89
2019-04-02T21:30:59.601Z,94711.03
2019-04-02T21:33:34.222Z,94708.86
2019-04-02T21:35:58.682Z,94709.41
2019-04-02T21:38:27.361Z,94712.31
2019-04-02T21:40:56.036Z,94714.34
2019-04-02T21:43:24.723Z,94721.91
2019-04-02T21:45:53.386Z,94721.45
2019-04-02T21:48:22.134Z,94713.09
2019-04-02T21:50:50.909Z,94720.55
2019-04-02T21:53:19.590Z,94717.14
2019-04-02T21:55:49.819Z,94720.19
2019-04-02T21:58:18.500Z,94717.80
2019-04-02T22:00:51.692Z,94722.20
2019-04-02T22:03:20.367Z,94716.08
2019-04-02T22:05:49.096Z,94718.61
2019-04-02T22:08:18.153Z,94717.91
2019-04-02T22:10:46.837Z,94695.43
2019-04-02T22:13:15.513Z,94719.63
2019-04-02T22:15:44.313Z,94718.01
2019-04-02T22:18:13.984Z,94724.85
2019-04-02T22:20:43.771Z,94721.48
2019-04-02T22:23:13.510Z,94714.19
2019-04-02T22:25:43.411Z,94713.78
2019-04-02T22:28:15.167Z,94709.59
2019-04-02T22:30:43.269Z,94707.09
2019-04-02T22:33:17.774Z,94708.33
2019-04-02T22:35:42.408Z,94699.64
2019-04-02T22:38:11.084Z,94700.44
2019-04-02T22:40:39.767Z,94712.88
2019-04-02T22:43:08.520Z,94718.17
2019-04-02T22:45:37.175Z,94714.33
2019-04-02T22:48:05.898Z,94714.98
2019-04-02T22:50:34.574Z,94717.86
2019-04-02T22:53:03.257Z,94712.77
2019-04-02T22:55:32.676Z,94713.80
2019-04-02T22:58:02.490Z,94705.34
2019-04-02T23:00:32.568Z,94706.45
2019-04-02T23:03:02.529Z,94704.80
2019-04-02T23:05:32.733Z,94710.22
2019-04-02T23:08:03.921Z,94709.91
2019-04-02T23:10:33.494Z,94712.49
2019-04-02T23:13:03.508Z,94711.63
2019-04-02T23:15:32.758Z,94715.77
2019-04-02T23:18:01.418Z,94713.69
2019-04-02T23:20:30.114Z,94712.09
2019-04-02T23:22:59.071Z,94711.16
2019-04-02T23:25:27.923Z,94708.83
2019-04-02T23:27:56.610Z,94696.81
2019-04-02T23:30:25.407Z,94701.66
2019-04-02T23:32:54.751Z,94697.87
2019-04-02T23:35:24.043Z,94701.52
2019-04-02T23:37:52.708Z,94702.46
2019-04-02T23:40:21.528Z,94697.52
2019-04-02T23:42:50.194Z,94692.09
2019-04-02T23:45:18.879Z,94684.30
2019-04-02T23:47:47.564Z,94685.52
2019-04-02T23:50:16.408Z,94679.98
2019-04-02T23:52:45.132Z,94690.50
2019-04-02T23:55:13.785Z,94692.79
2019-04-02T23:57:42.453Z,94690.09
